Blue Ball, PA (17506)

4:55 PM EDT on July 26, 2016 (GMT -0400)
http://www.nhpaweather.com | | Change Station

Elev 483 ft 40.09 °N, 76.09 °W | Updated 19 seconds ago

Partly Cloudy
Partly Cloudy
89.5 °F
Feels Like 93 °F
N
5.0
Wind Variable Wind from West
Gusts 5.0 mph

Today
High -- | Low -- °F
--% Chance of Precip.
Yesterday
High -- | Low -- °F
Precip. -- in
Pressure 29.91 in
Visibility 10.0 miles
Clouds Few 4900 ft
Heat Index 93 °F
Dew Point 68 °F
Humidity 49%
Rainfall 0.00 in
Snow Depth Not available.
5:57 AM 8:23 PM
Waning Gibbous, 51% visible
METAR KLNS 261953Z 28007KT 10SM FEW049 32/19 A2992 RMK AO2 SLP128 T03220194
Pressure 29.91 in
Visibility 10.0 miles
Clouds Few 4900 ft
Heat Index 93 °F
Dew Point 68 °F
Humidity 49%
Rainfall 0.00 in
Snow Depth Not available.
5:57 AM 8:23 PM
Waning Gibbous, 51% visible
METAR KLNS 261953Z 28007KT 10SM FEW049 32/19 A2992 RMK AO2 SLP128 T03220194

10-Day Weather Forecast

Almanac

Astronomy

Jul. 26, 2016 Rise Set
Actual Time
Civil Twilight
Nautical Twilight
Astronomical Twilight
Moon
Length of Visible Light
Length of Day
Tomorrow will be .
, % of the Moon is Illuminated

Today's Extremes

State Highs State Lows

Community

WunderPhotos

Upload Photos

1,927,678 photos uploaded!

WunderBlog® & News

Nearby

Air Quality

  Air Quality AQ Index Pollutant
Not available.

Snow Depth

Station Depth Elevation

Earthquake Activity

City Distance Mag. Time & Date
Minimum magnitude displayed is 2.5.

Coastal Water Temperatures

Place Temperature

Stations

Nearby Weather Stations

Station Location Temp. Windchill Dew Point Humidity Wind Precip. Elev Updated Type
                   

Watches & Warnings

There are currently no watches in effect.